Aérodrome :
LOGIN :

S'inscrire | Disclaimer

   EN    FR    IT 

 










Légende :    VFR   VFR Marginal   IFR   IFR Intensif   IFR Très Intensif
Visi : 
Plafond : 
>= 8 km
>= 3000ft
5 à 8 km
1000 à 3000 ft
1500m à 5 km
500 à 1000 ft
800 à 1500m
200 à 500 ft
< 800m
< 200 ft
Symboles :   Orages  Brouillard  Fortes neiges  Fortes précipitations  Vent > 20 kt
SIGMETs :   Divers  Orages  Givrage  Turbulence  Onde Orograph.  Cendres Volcan.







- Altitude de l'aérodrome : 357 ft
- Code IATA : TUF
- Voir les cartes d'approche


LFOT - Tours

DERNIER METAR :
  • 221230Z AUTO 18009KT 9000 NSC 15/05 Q1008 NOSIG

METARs EXPIRÉS :
  • 221200Z AUTO 19009KT 9000 NSC 14/05 Q1009 NOSIG
  • 221130Z AUTO 17009KT 140V200 8000 NSC 13/05 Q1009 NOSIG
  • 221100Z AUTO 16008KT 7000 NSC 11/06 Q1010 NOSIG
  • 221030Z AUTO 18008KT 7000 NSC 10/05 Q1010 NOSIG
  • 221000Z AUTO 18007KT 150V210 7000 FEW004 09/07 Q1011 NOSIG

TAF TAF LFOT
Valide du 22 à 12h jusqu'au 23 à 12h UTC


221100Z 2212/2312 18010KT CAVOK
BECMG 2218/2221 19018G30KT
TEMPO 2306/2312 4000 -RA BKN012
Pas de NOTAMs connus pour ce terrain.



MET'MAP, la Météo Aéronautique d'un coup d'oeil ! - Copyright ORBIFLY Décembre 2007 - Disclaimer

ORBIFLY MET'MAP TEAM :

Programmation & Développement : Alexandra Zaïnal
Conception & Développement : Baudouin d'Aumeries
Co-Programmation & Développement : Marc-Olivier Méhu
Soutien technique & logistique : Manuel Goepfert

Contact : metmap@orbifly.com




SOURCES & CREDITS :

   NOAA